sensor_id;sensor_type;location;lat;lon;timestamp;temperature;humidity
56538;DHT22;42435;53.292;6.000;2022-07-09T00:00:22;18.60;77.70
56538;DHT22;42435;53.292;6.000;2022-07-09T00:02:56;18.60;77.80
56538;DHT22;42435;53.292;6.000;2022-07-09T00:05:22;18.70;77.80
56538;DHT22;42435;53.292;6.000;2022-07-09T00:07:47;18.70;77.70
56538;DHT22;42435;53.292;6.000;2022-07-09T00:10:13;18.70;77.90
56538;DHT22;42435;53.292;6.000;2022-07-09T00:12:38;18.70;77.90
56538;DHT22;42435;53.292;6.000;2022-07-09T00:15:05;18.70;78.00
56538;DHT22;42435;53.292;6.000;2022-07-09T00:17:31;18.70;78.00
56538;DHT22;42435;53.292;6.000;2022-07-09T00:19:57;18.70;78.10
56538;DHT22;42435;53.292;6.000;2022-07-09T00:22:23;18.70;78.10
56538;DHT22;42435;53.292;6.000;2022-07-09T00:24:48;18.70;78.10
56538;DHT22;42435;53.292;6.000;2022-07-09T00:27:14;18.80;78.10
56538;DHT22;42435;53.292;6.000;2022-07-09T00:29:40;18.70;78.10
56538;DHT22;42435;53.292;6.000;2022-07-09T00:32:06;18.80;78.20
56538;DHT22;42435;53.292;6.000;2022-07-09T00:34:32;18.80;78.20
56538;DHT22;42435;53.292;6.000;2022-07-09T00:36:59;18.80;78.20
56538;DHT22;42435;53.292;6.000;2022-07-09T00:39:25;18.80;78.30
56538;DHT22;42435;53.292;6.000;2022-07-09T00:41:50;18.80;78.30
56538;DHT22;42435;53.292;6.000;2022-07-09T00:44:16;18.90;78.30
56538;DHT22;42435;53.292;6.000;2022-07-09T00:46:43;18.80;78.30
56538;DHT22;42435;53.292;6.000;2022-07-09T00:49:08;18.80;78.30
56538;DHT22;42435;53.292;6.000;2022-07-09T00:51:34;18.80;78.30
56538;DHT22;42435;53.292;6.000;2022-07-09T00:54:02;18.90;78.30
56538;DHT22;42435;53.292;6.000;2022-07-09T00:56:28;18.90;78.40
56538;DHT22;42435;53.292;6.000;2022-07-09T00:58:55;18.90;78.40
56538;DHT22;42435;53.292;6.000;2022-07-09T01:01:21;18.90;78.50
56538;DHT22;42435;53.292;6.000;2022-07-09T01:03:47;18.90;78.50
56538;DHT22;42435;53.292;6.000;2022-07-09T01:06:13;18.90;78.50
56538;DHT22;42435;53.292;6.000;2022-07-09T01:08:40;18.90;78.50
56538;DHT22;42435;53.292;6.000;2022-07-09T01:11:06;18.90;78.60
56538;DHT22;42435;53.292;6.000;2022-07-09T01:13:32;18.90;78.50
56538;DHT22;42435;53.292;6.000;2022-07-09T01:15:57;18.90;78.50
56538;DHT22;42435;53.292;6.000;2022-07-09T01:18:23;18.90;78.50
56538;DHT22;42435;53.292;6.000;2022-07-09T01:20:48;18.90;78.50
56538;DHT22;42435;53.292;6.000;2022-07-09T01:23:14;18.90;78.60
56538;DHT22;42435;53.292;6.000;2022-07-09T01:25:42;18.90;78.60
56538;DHT22;42435;53.292;6.000;2022-07-09T01:28:10;18.90;78.60
56538;DHT22;42435;53.292;6.000;2022-07-09T01:30:38;18.90;78.60
56538;DHT22;42435;53.292;6.000;2022-07-09T01:33:04;18.80;78.70
56538;DHT22;42435;53.292;6.000;2022-07-09T01:35:30;18.80;78.70
56538;DHT22;42435;53.292;6.000;2022-07-09T01:37:56;18.80;78.80
56538;DHT22;42435;53.292;6.000;2022-07-09T01:40:22;18.80;78.70
56538;DHT22;42435;53.292;6.000;2022-07-09T01:42:48;18.80;78.80
56538;DHT22;42435;53.292;6.000;2022-07-09T01:45:14;18.70;78.80
56538;DHT22;42435;53.292;6.000;2022-07-09T01:47:40;18.80;78.70
56538;DHT22;42435;53.292;6.000;2022-07-09T01:50:06;18.70;78.70
56538;DHT22;42435;53.292;6.000;2022-07-09T01:52:33;18.70;78.70
56538;DHT22;42435;53.292;6.000;2022-07-09T01:54:59;18.70;78.70
56538;DHT22;42435;53.292;6.000;2022-07-09T01:57:25;18.70;78.70
56538;DHT22;42435;53.292;6.000;2022-07-09T01:59:50;18.60;78.80
56538;DHT22;42435;53.292;6.000;2022-07-09T02:02:16;18.60;78.90
56538;DHT22;42435;53.292;6.000;2022-07-09T02:04:41;18.60;78.90
56538;DHT22;42435;53.292;6.000;2022-07-09T02:07:07;18.60;79.00
56538;DHT22;42435;53.292;6.000;2022-07-09T02:09:33;18.60;79.00
56538;DHT22;42435;53.292;6.000;2022-07-09T02:11:58;18.60;79.10
56538;DHT22;42435;53.292;6.000;2022-07-09T02:14:24;18.60;79.10
56538;DHT22;42435;53.292;6.000;2022-07-09T02:16:50;18.60;79.10
56538;DHT22;42435;53.292;6.000;2022-07-09T02:19:15;18.60;79.10
56538;DHT22;42435;53.292;6.000;2022-07-09T02:21:41;18.60;79.10
56538;DHT22;42435;53.292;6.000;2022-07-09T02:24:07;18.60;79.10
56538;DHT22;42435;53.292;6.000;2022-07-09T02:26:32;18.60;79.10
56538;DHT22;42435;53.292;6.000;2022-07-09T02:28:59;18.70;79.20
56538;DHT22;42435;53.292;6.000;2022-07-09T02:31:26;18.70;79.20
56538;DHT22;42435;53.292;6.000;2022-07-09T02:33:52;18.70;79.20
56538;DHT22;42435;53.292;6.000;2022-07-09T02:36:18;18.70;79.30
56538;DHT22;42435;53.292;6.000;2022-07-09T02:38:43;18.70;79.20
56538;DHT22;42435;53.292;6.000;2022-07-09T02:41:09;18.60;79.20
56538;DHT22;42435;53.292;6.000;2022-07-09T02:43:34;18.70;79.10
56538;DHT22;42435;53.292;6.000;2022-07-09T02:46:00;18.70;79.20
56538;DHT22;42435;53.292;6.000;2022-07-09T02:48:26;18.60;79.20
56538;DHT22;42435;53.292;6.000;2022-07-09T02:50:52;18.60;79.20
56538;DHT22;42435;53.292;6.000;2022-07-09T02:53:18;18.60;79.20
56538;DHT22;42435;53.292;6.000;2022-07-09T02:55:45;18.60;79.30
56538;DHT22;42435;53.292;6.000;2022-07-09T02:58:11;18.50;79.30
56538;DHT22;42435;53.292;6.000;2022-07-09T03:00:37;18.50;79.40
56538;DHT22;42435;53.292;6.000;2022-07-09T03:03:08;18.50;79.50
56538;DHT22;42435;53.292;6.000;2022-07-09T03:05:34;18.40;79.60
56538;DHT22;42435;53.292;6.000;2022-07-09T03:08:00;18.40;79.70
56538;DHT22;42435;53.292;6.000;2022-07-09T03:10:26;18.40;79.70
56538;DHT22;42435;53.292;6.000;2022-07-09T03:12:52;18.40;79.80
56538;DHT22;42435;53.292;6.000;2022-07-09T03:15:18;18.40;79.80
56538;DHT22;42435;53.292;6.000;2022-07-09T03:17:44;18.40;79.80
56538;DHT22;42435;53.292;6.000;2022-07-09T03:20:10;18.40;79.80
56538;DHT22;42435;53.292;6.000;2022-07-09T03:22:36;18.40;79.80
56538;DHT22;42435;53.292;6.000;2022-07-09T03:25:03;18.40;79.80
56538;DHT22;42435;53.292;6.000;2022-07-09T03:27:29;18.40;79.80
56538;DHT22;42435;53.292;6.000;2022-07-09T03:29:54;18.40;79.70
56538;DHT22;42435;53.292;6.000;2022-07-09T03:32:20;18.40;79.90
56538;DHT22;42435;53.292;6.000;2022-07-09T03:34:47;18.20;79.90
56538;DHT22;42435;53.292;6.000;2022-07-09T03:37:12;18.30;79.90
56538;DHT22;42435;53.292;6.000;2022-07-09T03:39:38;18.30;80.00
56538;DHT22;42435;53.292;6.000;2022-07-09T03:42:04;18.30;80.00
56538;DHT22;42435;53.292;6.000;2022-07-09T03:44:32;18.20;80.00
56538;DHT22;42435;53.292;6.000;2022-07-09T03:46:58;18.30;80.00
56538;DHT22;42435;53.292;6.000;2022-07-09T03:49:24;18.20;80.00
56538;DHT22;42435;53.292;6.000;2022-07-09T03:51:50;18.30;80.00
56538;DHT22;42435;53.292;6.000;2022-07-09T03:54:15;18.20;79.90
56538;DHT22;42435;53.292;6.000;2022-07-09T03:56:41;18.20;79.90
56538;DHT22;42435;53.292;6.000;2022-07-09T03:59:06;18.20;79.90
56538;DHT22;42435;53.292;6.000;2022-07-09T04:01:32;18.10;79.90
56538;DHT22;42435;53.292;6.000;2022-07-09T04:03:57;18.20;80.00
56538;DHT22;42435;53.292;6.000;2022-07-09T04:06:24;18.20;80.00
56538;DHT22;42435;53.292;6.000;2022-07-09T04:08:50;18.10;80.00
56538;DHT22;42435;53.292;6.000;2022-07-09T04:11:15;18.20;80.10
56538;DHT22;42435;53.292;6.000;2022-07-09T04:13:41;18.20;80.10
56538;DHT22;42435;53.292;6.000;2022-07-09T04:16:07;18.20;80.10
56538;DHT22;42435;53.292;6.000;2022-07-09T04:18:34;18.20;80.00
56538;DHT22;42435;53.292;6.000;2022-07-09T04:20:59;18.20;80.00
56538;DHT22;42435;53.292;6.000;2022-07-09T04:23:25;18.30;80.00
56538;DHT22;42435;53.292;6.000;2022-07-09T04:25:52;18.30;80.00
56538;DHT22;42435;53.292;6.000;2022-07-09T04:28:18;18.30;80.00
56538;DHT22;42435;53.292;6.000;2022-07-09T04:30:44;18.30;80.00
56538;DHT22;42435;53.292;6.000;2022-07-09T04:33:10;18.40;80.00
56538;DHT22;42435;53.292;6.000;2022-07-09T04:35:36;18.40;79.90
56538;DHT22;42435;53.292;6.000;2022-07-09T04:38:02;18.40;79.80
56538;DHT22;42435;53.292;6.000;2022-07-09T04:40:28;18.40;79.80
56538;DHT22;42435;53.292;6.000;2022-07-09T04:42:54;18.50;79.80
56538;DHT22;42435;53.292;6.000;2022-07-09T04:45:19;18.50;79.70
56538;DHT22;42435;53.292;6.000;2022-07-09T04:47:45;18.60;79.70
56538;DHT22;42435;53.292;6.000;2022-07-09T04:50:11;18.60;79.60
56538;DHT22;42435;53.292;6.000;2022-07-09T04:52:37;18.60;79.50
56538;DHT22;42435;53.292;6.000;2022-07-09T04:55:04;18.70;79.50
56538;DHT22;42435;53.292;6.000;2022-07-09T04:57:30;18.70;79.40
56538;DHT22;42435;53.292;6.000;2022-07-09T04:59:59;18.90;79.40
56538;DHT22;42435;53.292;6.000;2022-07-09T05:02:25;18.90;79.30
56538;DHT22;42435;53.292;6.000;2022-07-09T05:04:50;18.90;79.20
56538;DHT22;42435;53.292;6.000;2022-07-09T05:07:16;19.00;79.20
56538;DHT22;42435;53.292;6.000;2022-07-09T05:09:41;19.00;79.10
56538;DHT22;42435;53.292;6.000;2022-07-09T05:12:07;19.10;79.10
56538;DHT22;42435;53.292;6.000;2022-07-09T05:14:34;19.10;79.10
56538;DHT22;42435;53.292;6.000;2022-07-09T05:17:00;19.10;79.00
56538;DHT22;42435;53.292;6.000;2022-07-09T05:19:25;19.20;78.90
56538;DHT22;42435;53.292;6.000;2022-07-09T05:21:52;19.30;78.80
56538;DHT22;42435;53.292;6.000;2022-07-09T05:24:18;19.30;78.60
56538;DHT22;42435;53.292;6.000;2022-07-09T05:26:43;19.30;78.60
56538;DHT22;42435;53.292;6.000;2022-07-09T05:29:09;19.40;78.50
56538;DHT22;42435;53.292;6.000;2022-07-09T05:31:34;19.40;78.40
56538;DHT22;42435;53.292;6.000;2022-07-09T05:34:00;19.50;78.20
56538;DHT22;42435;53.292;6.000;2022-07-09T05:36:26;19.50;78.20
56538;DHT22;42435;53.292;6.000;2022-07-09T05:38:54;19.50;77.90
56538;DHT22;42435;53.292;6.000;2022-07-09T05:41:20;19.50;77.90
56538;DHT22;42435;53.292;6.000;2022-07-09T05:43:48;19.60;77.80
56538;DHT22;42435;53.292;6.000;2022-07-09T05:46:13;19.70;77.60
56538;DHT22;42435;53.292;6.000;2022-07-09T05:48:39;19.70;77.40
56538;DHT22;42435;53.292;6.000;2022-07-09T05:51:05;19.70;77.40
56538;DHT22;42435;53.292;6.000;2022-07-09T05:53:30;19.70;77.40
56538;DHT22;42435;53.292;6.000;2022-07-09T05:55:56;19.80;77.40
56538;DHT22;42435;53.292;6.000;2022-07-09T05:58:22;19.80;77.20
56538;DHT22;42435;53.292;6.000;2022-07-09T06:00:47;19.80;77.00
56538;DHT22;42435;53.292;6.000;2022-07-09T06:03:13;19.80;76.90
56538;DHT22;42435;53.292;6.000;2022-07-09T06:05:38;19.90;76.70
56538;DHT22;42435;53.292;6.000;2022-07-09T06:08:04;19.90;76.70
56538;DHT22;42435;53.292;6.000;2022-07-09T06:10:30;20.00;76.60
56538;DHT22;42435;53.292;6.000;2022-07-09T06:12:55;20.00;76.40
56538;DHT22;42435;53.292;6.000;2022-07-09T06:15:21;20.10;76.40
56538;DHT22;42435;53.292;6.000;2022-07-09T06:17:46;20.20;76.30
56538;DHT22;42435;53.292;6.000;2022-07-09T06:20:12;20.20;76.20
56538;DHT22;42435;53.292;6.000;2022-07-09T06:22:37;20.30;76.10
56538;DHT22;42435;53.292;6.000;2022-07-09T06:25:05;20.40;75.70
56538;DHT22;42435;53.292;6.000;2022-07-09T06:27:31;20.50;75.60
56538;DHT22;42435;53.292;6.000;2022-07-09T06:29:56;20.50;75.30
56538;DHT22;42435;53.292;6.000;2022-07-09T06:32:22;20.50;75.00
56538;DHT22;42435;53.292;6.000;2022-07-09T06:34:47;20.50;75.00
56538;DHT22;42435;53.292;6.000;2022-07-09T06:37:13;20.50;75.00
56538;DHT22;42435;53.292;6.000;2022-07-09T06:39:38;20.50;74.70
56538;DHT22;42435;53.292;6.000;2022-07-09T06:42:10;20.50;74.60
56538;DHT22;42435;53.292;6.000;2022-07-09T06:44:37;20.60;74.60
56538;DHT22;42435;53.292;6.000;2022-07-09T06:47:04;20.60;74.50
56538;DHT22;42435;53.292;6.000;2022-07-09T06:49:30;20.70;74.20
56538;DHT22;42435;53.292;6.000;2022-07-09T06:51:55;20.70;74.00
56538;DHT22;42435;53.292;6.000;2022-07-09T06:54:21;20.70;73.90
56538;DHT22;42435;53.292;6.000;2022-07-09T06:56:47;20.80;73.80
56538;DHT22;42435;53.292;6.000;2022-07-09T06:59:13;20.90;73.50
56538;DHT22;42435;53.292;6.000;2022-07-09T07:01:39;20.90;73.40
56538;DHT22;42435;53.292;6.000;2022-07-09T07:04:05;21.00;73.20
56538;DHT22;42435;53.292;6.000;2022-07-09T07:06:31;21.20;72.80
56538;DHT22;42435;53.292;6.000;2022-07-09T07:08:56;21.30;72.60
56538;DHT22;42435;53.292;6.000;2022-07-09T07:11:22;21.40;72.60
56538;DHT22;42435;53.292;6.000;2022-07-09T07:13:48;21.50;72.30
56538;DHT22;42435;53.292;6.000;2022-07-09T07:16:14;21.50;72.10
56538;DHT22;42435;53.292;6.000;2022-07-09T07:18:39;21.60;71.70
56538;DHT22;42435;53.292;6.000;2022-07-09T07:21:05;21.70;71.20
56538;DHT22;42435;53.292;6.000;2022-07-09T07:23:30;21.80;70.70
56538;DHT22;42435;53.292;6.000;2022-07-09T07:26:01;21.90;70.80
56538;DHT22;42435;53.292;6.000;2022-07-09T07:28:27;22.10;70.00
56538;DHT22;42435;53.292;6.000;2022-07-09T07:30:52;22.20;69.40
56538;DHT22;42435;53.292;6.000;2022-07-09T07:33:18;22.40;69.20
56538;DHT22;42435;53.292;6.000;2022-07-09T07:35:44;22.50;69.00
56538;DHT22;42435;53.292;6.000;2022-07-09T07:38:10;22.60;68.20
56538;DHT22;42435;53.292;6.000;2022-07-09T07:40:35;22.60;68.10
56538;DHT22;42435;53.292;6.000;2022-07-09T07:43:05;22.70;67.90
56538;DHT22;42435;53.292;6.000;2022-07-09T07:45:31;22.80;67.50
56538;DHT22;42435;53.292;6.000;2022-07-09T07:47:56;22.90;67.50
56538;DHT22;42435;53.292;6.000;2022-07-09T07:50:22;23.00;67.10
56538;DHT22;42435;53.292;6.000;2022-07-09T07:52:49;23.10;66.50
56538;DHT22;42435;53.292;6.000;2022-07-09T07:55:14;23.20;66.10
56538;DHT22;42435;53.292;6.000;2022-07-09T07:57:40;23.20;65.90
56538;DHT22;42435;53.292;6.000;2022-07-09T08:00:06;23.10;66.00
56538;DHT22;42435;53.292;6.000;2022-07-09T08:02:33;23.10;65.70
56538;DHT22;42435;53.292;6.000;2022-07-09T08:05:00;23.10;65.50
56538;DHT22;42435;53.292;6.000;2022-07-09T08:07:25;23.00;65.60
56538;DHT22;42435;53.292;6.000;2022-07-09T08:09:51;22.90;65.80
56538;DHT22;42435;53.292;6.000;2022-07-09T08:12:17;23.20;65.30
56538;DHT22;42435;53.292;6.000;2022-07-09T08:14:42;23.40;64.60
56538;DHT22;42435;53.292;6.000;2022-07-09T08:17:08;23.60;64.00
56538;DHT22;42435;53.292;6.000;2022-07-09T08:19:33;23.80;63.70
56538;DHT22;42435;53.292;6.000;2022-07-09T08:21:59;23.90;63.20
56538;DHT22;42435;53.292;6.000;2022-07-09T08:24:25;24.20;62.50
56538;DHT22;42435;53.292;6.000;2022-07-09T08:26:50;24.40;61.80
56538;DHT22;42435;53.292;6.000;2022-07-09T08:29:16;24.50;61.50
56538;DHT22;42435;53.292;6.000;2022-07-09T08:31:41;24.50;61.30
56538;DHT22;42435;53.292;6.000;2022-07-09T08:34:07;24.50;62.00
56538;DHT22;42435;53.292;6.000;2022-07-09T08:36:32;24.70;61.50
56538;DHT22;42435;53.292;6.000;2022-07-09T08:38:58;24.90;61.20
56538;DHT22;42435;53.292;6.000;2022-07-09T08:41:23;25.20;61.70
56538;DHT22;42435;53.292;6.000;2022-07-09T08:43:50;25.50;60.30
56538;DHT22;42435;53.292;6.000;2022-07-09T08:46:17;25.70;58.90
56538;DHT22;42435;53.292;6.000;2022-07-09T08:48:43;25.60;58.20
56538;DHT22;42435;53.292;6.000;2022-07-09T08:51:10;25.60;57.90
56538;DHT22;42435;53.292;6.000;2022-07-09T08:53:40;25.70;57.80
56538;DHT22;42435;53.292;6.000;2022-07-09T08:56:07;25.90;57.40
56538;DHT22;42435;53.292;6.000;2022-07-09T08:58:32;26.10;57.30
56538;DHT22;42435;53.292;6.000;2022-07-09T09:00:58;26.40;56.60
56538;DHT22;42435;53.292;6.000;2022-07-09T09:03:24;26.50;56.00
56538;DHT22;42435;53.292;6.000;2022-07-09T09:06:07;26.50;55.80
56538;DHT22;42435;53.292;6.000;2022-07-09T09:08:54;26.30;55.70
56538;DHT22;42435;53.292;6.000;2022-07-09T09:11:25;26.10;56.20
56538;DHT22;42435;53.292;6.000;2022-07-09T09:13:51;25.90;56.90
56538;DHT22;42435;53.292;6.000;2022-07-09T09:16:18;25.80;57.10
56538;DHT22;42435;53.292;6.000;2022-07-09T09:18:46;25.60;56.50
56538;DHT22;42435;53.292;6.000;2022-07-09T09:21:13;25.70;56.70
56538;DHT22;42435;53.292;6.000;2022-07-09T09:23:47;25.90;56.00
56538;DHT22;42435;53.292;6.000;2022-07-09T09:26:15;25.90;55.70
56538;DHT22;42435;53.292;6.000;2022-07-09T09:28:51;25.90;55.60
56538;DHT22;42435;53.292;6.000;2022-07-09T09:31:25;25.80;55.90
56538;DHT22;42435;53.292;6.000;2022-07-09T09:33:53;25.80;55.50
56538;DHT22;42435;53.292;6.000;2022-07-09T09:41:39;26.10;56.00
56538;DHT22;42435;53.292;6.000;2022-07-09T09:44:10;26.20;55.50
56538;DHT22;42435;53.292;6.000;2022-07-09T09:46:37;25.70;56.10
56538;DHT22;42435;53.292;6.000;2022-07-09T09:49:08;25.10;57.40
56538;DHT22;42435;53.292;6.000;2022-07-09T09:51:42;24.70;58.60
56538;DHT22;42435;53.292;6.000;2022-07-09T09:54:10;24.20;59.60
56538;DHT22;42435;53.292;6.000;2022-07-09T09:56:38;23.60;60.50
56538;DHT22;42435;53.292;6.000;2022-07-09T09:59:04;23.30;61.10
56538;DHT22;42435;53.292;6.000;2022-07-09T10:01:30;23.10;60.90
56538;DHT22;42435;53.292;6.000;2022-07-09T10:03:57;23.00;60.90
56538;DHT22;42435;53.292;6.000;2022-07-09T10:06:23;22.90;61.30
56538;DHT22;42435;53.292;6.000;2022-07-09T10:08:50;22.80;60.70
56538;DHT22;42435;53.292;6.000;2022-07-09T10:11:16;22.70;60.10
56538;DHT22;42435;53.292;6.000;2022-07-09T10:13:55;22.70;60.30
56538;DHT22;42435;53.292;6.000;2022-07-09T10:16:40;23.00;59.40
56538;DHT22;42435;53.292;6.000;2022-07-09T10:19:06;23.40;59.00
56538;DHT22;42435;53.292;6.000;2022-07-09T10:21:40;23.60;58.40
56538;DHT22;42435;53.292;6.000;2022-07-09T10:24:08;23.90;57.20
56538;DHT22;42435;53.292;6.000;2022-07-09T10:27:01;24.00;56.20
56538;DHT22;42435;53.292;6.000;2022-07-09T10:29:28;23.80;56.10
56538;DHT22;42435;53.292;6.000;2022-07-09T10:31:55;23.60;55.80
56538;DHT22;42435;53.292;6.000;2022-07-09T10:34:50;23.40;55.70
56538;DHT22;42435;53.292;6.000;2022-07-09T10:37:32;23.30;56.10
56538;DHT22;42435;53.292;6.000;2022-07-09T10:40:24;23.40;56.10
56538;DHT22;42435;53.292;6.000;2022-07-09T10:43:02;23.80;55.40
56538;DHT22;42435;53.292;6.000;2022-07-09T10:45:35;23.80;54.70
56538;DHT22;42435;53.292;6.000;2022-07-09T10:48:02;23.70;53.70
56538;DHT22;42435;53.292;6.000;2022-07-09T10:50:30;23.50;54.00
56538;DHT22;42435;53.292;6.000;2022-07-09T10:52:57;23.40;53.70
56538;DHT22;42435;53.292;6.000;2022-07-09T10:55:26;23.40;53.20
56538;DHT22;42435;53.292;6.000;2022-07-09T10:57:52;23.40;53.10
56538;DHT22;42435;53.292;6.000;2022-07-09T11:00:26;23.60;53.40
56538;DHT22;42435;53.292;6.000;2022-07-09T11:02:57;24.20;52.80
56538;DHT22;42435;53.292;6.000;2022-07-09T11:05:25;24.50;52.00
56538;DHT22;42435;53.292;6.000;2022-07-09T11:07:59;24.60;50.90
56538;DHT22;42435;53.292;6.000;2022-07-09T11:10:25;24.50;50.60
56538;DHT22;42435;53.292;6.000;2022-07-09T11:12:54;24.60;51.30
56538;DHT22;42435;53.292;6.000;2022-07-09T11:15:20;24.80;51.10
56538;DHT22;42435;53.292;6.000;2022-07-09T11:18:00;25.00;50.40
56538;DHT22;42435;53.292;6.000;2022-07-09T11:20:27;25.10;49.40
56538;DHT22;42435;53.292;6.000;2022-07-09T11:22:53;25.00;50.00
56538;DHT22;42435;53.292;6.000;2022-07-09T11:25:25;25.20;49.60
56538;DHT22;42435;53.292;6.000;2022-07-09T11:27:51;25.30;49.90
56538;DHT22;42435;53.292;6.000;2022-07-09T11:30:17;25.50;49.30
56538;DHT22;42435;53.292;6.000;2022-07-09T11:32:43;25.80;48.30
56538;DHT22;42435;53.292;6.000;2022-07-09T11:35:10;26.00;47.40
56538;DHT22;42435;53.292;6.000;2022-07-09T11:37:37;25.70;47.80
56538;DHT22;42435;53.292;6.000;2022-07-09T11:40:03;25.50;48.20
56538;DHT22;42435;53.292;6.000;2022-07-09T11:42:29;25.60;47.40
56538;DHT22;42435;53.292;6.000;2022-07-09T11:45:01;25.50;47.10
56538;DHT22;42435;53.292;6.000;2022-07-09T11:47:40;25.60;47.10
56538;DHT22;42435;53.292;6.000;2022-07-09T11:50:18;25.90;47.50
56538;DHT22;42435;53.292;6.000;2022-07-09T11:52:50;26.00;47.40
56538;DHT22;42435;53.292;6.000;2022-07-09T11:55:18;26.20;47.50
56538;DHT22;42435;53.292;6.000;2022-07-09T11:57:55;26.30;46.70
56538;DHT22;42435;53.292;6.000;2022-07-09T12:00:29;26.30;45.40
56538;DHT22;42435;53.292;6.000;2022-07-09T12:02:58;25.90;46.20
56538;DHT22;42435;53.292;6.000;2022-07-09T12:05:32;26.00;46.00
56538;DHT22;42435;53.292;6.000;2022-07-09T12:08:00;25.80;45.60
56538;DHT22;42435;53.292;6.000;2022-07-09T12:10:31;25.40;46.60
56538;DHT22;42435;53.292;6.000;2022-07-09T12:12:58;25.30;47.60
56538;DHT22;42435;53.292;6.000;2022-07-09T12:15:24;25.30;46.80
56538;DHT22;42435;53.292;6.000;2022-07-09T12:17:54;25.30;47.50
56538;DHT22;42435;53.292;6.000;2022-07-09T12:20:20;25.50;47.20
56538;DHT22;42435;53.292;6.000;2022-07-09T12:22:46;25.80;47.20
56538;DHT22;42435;53.292;6.000;2022-07-09T12:25:13;25.80;47.00
56538;DHT22;42435;53.292;6.000;2022-07-09T12:27:39;25.80;46.60
56538;DHT22;42435;53.292;6.000;2022-07-09T12:30:05;26.00;46.70
56538;DHT22;42435;53.292;6.000;2022-07-09T12:32:30;26.30;46.80
56538;DHT22;42435;53.292;6.000;2022-07-09T12:34:56;26.60;45.60
56538;DHT22;42435;53.292;6.000;2022-07-09T12:37:22;26.70;45.40
56538;DHT22;42435;53.292;6.000;2022-07-09T12:39:47;26.80;45.50
56538;DHT22;42435;53.292;6.000;2022-07-09T12:42:15;26.90;45.30
56538;DHT22;42435;53.292;6.000;2022-07-09T12:44:40;26.60;44.80
56538;DHT22;42435;53.292;6.000;2022-07-09T12:47:06;26.40;45.10
56538;DHT22;42435;53.292;6.000;2022-07-09T12:49:31;26.10;45.30
56538;DHT22;42435;53.292;6.000;2022-07-09T12:51:57;25.90;45.90
56538;DHT22;42435;53.292;6.000;2022-07-09T12:54:23;25.80;46.40
56538;DHT22;42435;53.292;6.000;2022-07-09T12:56:48;25.90;46.10
56538;DHT22;42435;53.292;6.000;2022-07-09T12:59:16;25.70;46.40
56538;DHT22;42435;53.292;6.000;2022-07-09T13:01:43;25.80;47.00
56538;DHT22;42435;53.292;6.000;2022-07-09T13:04:09;26.10;47.00
56538;DHT22;42435;53.292;6.000;2022-07-09T13:06:34;26.30;46.20
56538;DHT22;42435;53.292;6.000;2022-07-09T13:09:05;26.20;45.80
56538;DHT22;42435;53.292;6.000;2022-07-09T13:11:31;26.30;45.70
56538;DHT22;42435;53.292;6.000;2022-07-09T13:13:57;26.40;45.20
56538;DHT22;42435;53.292;6.000;2022-07-09T13:16:23;26.20;45.50
56538;DHT22;42435;53.292;6.000;2022-07-09T13:18:49;26.10;45.90
56538;DHT22;42435;53.292;6.000;2022-07-09T13:21:17;25.90;46.70
56538;DHT22;42435;53.292;6.000;2022-07-09T13:23:42;25.90;46.40
56538;DHT22;42435;53.292;6.000;2022-07-09T13:26:08;25.80;46.30
56538;DHT22;42435;53.292;6.000;2022-07-09T13:28:34;25.80;47.00
56538;DHT22;42435;53.292;6.000;2022-07-09T13:30:59;25.80;47.10
56538;DHT22;42435;53.292;6.000;2022-07-09T13:33:25;25.70;46.90
56538;DHT22;42435;53.292;6.000;2022-07-09T13:35:50;25.60;47.30
56538;DHT22;42435;53.292;6.000;2022-07-09T13:38:16;25.50;48.00
56538;DHT22;42435;53.292;6.000;2022-07-09T13:40:42;25.50;48.40
56538;DHT22;42435;53.292;6.000;2022-07-09T13:43:07;25.40;48.90
56538;DHT22;42435;53.292;6.000;2022-07-09T13:45:33;25.30;49.40
56538;DHT22;42435;53.292;6.000;2022-07-09T13:47:58;25.20;49.40
56538;DHT22;42435;53.292;6.000;2022-07-09T13:50:24;25.20;49.00
56538;DHT22;42435;53.292;6.000;2022-07-09T13:52:50;25.00;49.10
56538;DHT22;42435;53.292;6.000;2022-07-09T13:55:15;24.90;49.40
56538;DHT22;42435;53.292;6.000;2022-07-09T13:57:41;24.90;49.60
56538;DHT22;42435;53.292;6.000;2022-07-09T14:00:08;25.00;49.10
56538;DHT22;42435;53.292;6.000;2022-07-09T14:02:34;25.10;48.10
56538;DHT22;42435;53.292;6.000;2022-07-09T14:05:01;25.00;46.90
56538;DHT22;42435;53.292;6.000;2022-07-09T14:07:27;24.90;47.00
56538;DHT22;42435;53.292;6.000;2022-07-09T14:09:52;24.80;47.20
56538;DHT22;42435;53.292;6.000;2022-07-09T14:12:18;24.70;47.00
56538;DHT22;42435;53.292;6.000;2022-07-09T14:14:44;24.40;47.30
56538;DHT22;42435;53.292;6.000;2022-07-09T14:17:10;24.30;47.70
56538;DHT22;42435;53.292;6.000;2022-07-09T14:19:36;24.30;48.00
56538;DHT22;42435;53.292;6.000;2022-07-09T14:22:02;24.20;47.80
56538;DHT22;42435;53.292;6.000;2022-07-09T14:24:28;24.20;47.60
56538;DHT22;42435;53.292;6.000;2022-07-09T14:26:53;24.30;47.80
56538;DHT22;42435;53.292;6.000;2022-07-09T14:29:19;24.30;47.10
56538;DHT22;42435;53.292;6.000;2022-07-09T14:31:44;24.40;47.10
56538;DHT22;42435;53.292;6.000;2022-07-09T14:34:10;24.40;46.60
56538;DHT22;42435;53.292;6.000;2022-07-09T14:36:35;24.50;46.30
56538;DHT22;42435;53.292;6.000;2022-07-09T14:39:02;24.50;46.80
56538;DHT22;42435;53.292;6.000;2022-07-09T14:41:28;24.50;47.10
56538;DHT22;42435;53.292;6.000;2022-07-09T14:43:54;24.50;46.80
56538;DHT22;42435;53.292;6.000;2022-07-09T14:46:20;24.50;47.10
56538;DHT22;42435;53.292;6.000;2022-07-09T14:48:46;24.50;47.20
56538;DHT22;42435;53.292;6.000;2022-07-09T14:51:11;24.50;47.80
56538;DHT22;42435;53.292;6.000;2022-07-09T14:53:37;24.70;47.80
56538;DHT22;42435;53.292;6.000;2022-07-09T14:56:03;24.80;47.20
56538;DHT22;42435;53.292;6.000;2022-07-09T14:58:28;24.70;47.60
56538;DHT22;42435;53.292;6.000;2022-07-09T15:00:55;24.80;47.80
56538;DHT22;42435;53.292;6.000;2022-07-09T15:03:20;24.80;47.60
56538;DHT22;42435;53.292;6.000;2022-07-09T15:05:46;24.70;47.90
56538;DHT22;42435;53.292;6.000;2022-07-09T15:08:12;24.70;47.90
56538;DHT22;42435;53.292;6.000;2022-07-09T15:10:38;24.60;47.80
56538;DHT22;42435;53.292;6.000;2022-07-09T15:13:04;24.60;47.50
56538;DHT22;42435;53.292;6.000;2022-07-09T15:15:33;24.40;47.90
56538;DHT22;42435;53.292;6.000;2022-07-09T15:18:00;24.20;48.70
56538;DHT22;42435;53.292;6.000;2022-07-09T15:20:25;24.00;49.30
56538;DHT22;42435;53.292;6.000;2022-07-09T15:22:53;23.90;49.50
56538;DHT22;42435;53.292;6.000;2022-07-09T15:25:19;23.70;49.60
56538;DHT22;42435;53.292;6.000;2022-07-09T15:27:44;23.50;50.00
56538;DHT22;42435;53.292;6.000;2022-07-09T15:30:10;23.40;50.30
56538;DHT22;42435;53.292;6.000;2022-07-09T15:32:36;23.20;50.50